Time;durP1;ratioP1;P1;durP2;ratioP2;P2;SDS_P1;SDS_P2;PMS_P1;PMS_P2;Temp;Humidity;BMP_temperature;BMP_pressure;BME280_temperature;BME280_humidity;BME280_pressure;Samples;Min_cycle;Max_cycle;Signal;HPM_P1;HPM_P2
2022/01/22 00:01:45;;;;;;;7.53;2.83;;;;;;;;;;5021754;28;20036;-72
2022/01/22 00:04:10;;;;;;;5.88;2.55;;;;;;;;;;5028311;28;20076;-74
2022/01/22 00:06:35;;;;;;;9.90;2.63;;;;;;;;;;5027845;28;20452;-76
2022/01/22 00:09:01;;;;;;;10.00;3.13;;;;;;;;;;5027271;28;20119;-72
2022/01/22 00:11:34;;;;;;;7.37;2.70;;;;;;;;;;5028243;28;20106;-73
2022/01/22 00:16:43;;;;;;;5.47;2.80;;;;;;;;;;5027429;28;20140;-73
2022/01/22 00:19:10;;;;;;;6.93;2.73;;;;;;;;;;5021306;28;20116;-72
2022/01/22 00:21:35;;;;;;;6.03;2.70;;;;;;;;;;5023601;28;20105;-73
2022/01/22 00:24:02;;;;;;;7.27;2.50;;;;;;;;;;5020558;28;20447;-73
2022/01/22 00:26:27;;;;;;;8.63;2.50;;;;;;;;;;5027008;28;20452;-72
2022/01/22 00:28:52;;;;;;;9.93;2.80;;;;;;;;;;5025275;28;20025;-71
2022/01/22 00:31:18;;;;;;;7.93;3.10;;;;;;;;;;5024051;28;20083;-71
2022/01/22 00:33:43;;;;;;;7.60;2.60;;;;;;;;;;5026411;28;20084;-71
2022/01/22 00:36:08;;;;;;;8.50;2.90;;;;;;;;;;5021549;28;20454;-70
2022/01/22 00:38:33;;;;;;;6.05;2.45;;;;;;;;;;5020187;28;20031;-70
2022/01/22 00:40:58;;;;;;;7.95;2.67;;;;;;;;;;5019133;28;20393;-72
2022/01/22 00:43:24;;;;;;;6.83;2.70;;;;;;;;;;5024759;28;20120;-70
2022/01/22 00:45:49;;;;;;;7.30;2.77;;;;;;;;;;5025433;28;20021;-71
2022/01/22 00:48:14;;;;;;;7.07;2.60;;;;;;;;;;5027422;28;20056;-72
2022/01/22 00:50:39;;;;;;;7.67;3.10;;;;;;;;;;5023939;28;20095;-70
2022/01/22 00:53:04;;;;;;;6.25;2.58;;;;;;;;;;5029515;28;20076;-70
2022/01/22 00:55:30;;;;;;;6.50;2.67;;;;;;;;;;5021902;28;20053;-71
2022/01/22 00:57:55;;;;;;;5.28;2.38;;;;;;;;;;5029610;28;20339;-70
2022/01/22 01:00:20;;;;;;;8.23;3.00;;;;;;;;;;5022977;28;20025;-70
2022/01/22 01:02:46;;;;;;;6.88;2.42;;;;;;;;;;5020184;28;20025;-72
2022/01/22 01:05:12;;;;;;;5.67;2.30;;;;;;;;;;5022653;28;20037;-70
2022/01/22 01:07:38;;;;;;;9.60;2.70;;;;;;;;;;5024227;28;20098;-70
2022/01/22 01:10:04;;;;;;;6.30;2.47;;;;;;;;;;5019788;28;20026;-71
2022/01/22 01:12:29;;;;;;;8.97;2.60;;;;;;;;;;5021749;28;20045;-70
2022/01/22 01:32:10;;;;;;;6.97;2.67;;;;;;;;;;5025270;28;20044;-70
2022/01/22 01:34:15;;;;;;;5.73;2.40;;;;;;;;;;5026268;28;20404;-70
2022/01/22 01:36:41;;;;;;;5.77;2.43;;;;;;;;;;5025285;28;20482;-70
2022/01/22 01:39:09;;;;;;;4.87;2.20;;;;;;;;;;5021025;28;20025;-69
2022/01/22 01:44:02;;;;;;;8.18;2.35;;;;;;;;;;5021929;28;20112;-70
2022/01/22 01:46:31;;;;;;;3.53;1.87;;;;;;;;;;5025618;28;20418;-69
2022/01/22 01:48:57;;;;;;;6.77;2.47;;;;;;;;;;5016967;28;20465;-69
2022/01/22 01:51:25;;;;;;;5.93;1.90;;;;;;;;;;5023868;28;20033;-69
2022/01/22 01:54:07;;;;;;;5.75;2.08;;;;;;;;;;5024147;28;20280;-70
2022/01/22 01:59:16;;;;;;;5.53;2.13;;;;;;;;;;5020364;28;20067;-69
2022/01/22 02:01:42;;;;;;;5.28;2.08;;;;;;;;;;5023428;28;20037;-69
2022/01/22 02:04:10;;;;;;;4.07;1.73;;;;;;;;;;5022923;28;20040;-68
2022/01/22 02:06:35;;;;;;;5.07;2.37;;;;;;;;;;5022434;28;20037;-70
2022/01/22 02:09:01;;;;;;;4.55;1.58;;;;;;;;;;5014198;28;20051;-69
2022/01/22 02:11:27;;;;;;;3.78;1.80;;;;;;;;;;5019809;28;20383;-69
2022/01/22 02:24:59;;;;;;;4.80;1.60;;;;;;;;;;4987074;28;20549;-68
2022/01/22 02:27:24;;;;;;;4.18;1.27;;;;;;;;;;4982588;28;20506;-72
2022/01/22 02:29:50;;;;;;;5.82;1.50;;;;;;;;;;4983418;28;20117;-71
2022/01/22 02:35:16;;;;;;;2.53;1.30;;;;;;;;;;4988258;28;20073;-71
2022/01/22 02:37:51;;;;;;;2.57;1.13;;;;;;;;;;4989325;28;20057;-69
2022/01/22 02:40:24;;;;;;;3.93;1.30;;;;;;;;;;4994143;28;20456;-70
2022/01/22 02:42:50;;;;;;;3.97;1.38;;;;;;;;;;4988384;28;20184;-70
2022/01/22 02:45:19;;;;;;;3.42;1.40;;;;;;;;;;4988184;28;20106;-71
2022/01/22 02:47:45;;;;;;;;;;;;;;;;;;4989492;28;20125;-68
2022/01/22 02:50:11;;;;;;;3.17;1.53;;;;;;;;;;4989683;28;20143;-69
2022/01/22 02:52:36;;;;;;;4.07;1.70;;;;;;;;;;5000014;28;20037;-70
2022/01/22 02:55:03;;;;;;;3.10;1.40;;;;;;;;;;5022550;28;20025;-69
2022/01/22 02:57:31;;;;;;;4.60;1.45;;;;;;;;;;5027649;28;20476;-70
2022/01/22 02:59:58;;;;;;;3.63;1.63;;;;;;;;;;5022156;28;20461;-70
2022/01/22 03:02:23;;;;;;;3.58;1.30;;;;;;;;;;5021307;28;20053;-69
2022/01/22 03:04:48;;;;;;;4.53;1.90;;;;;;;;;;5021671;28;20064;-70
2022/01/22 03:07:14;;;;;;;5.20;1.40;;;;;;;;;;5022770;28;20121;-69
2022/01/22 03:09:44;;;;;;;5.30;2.10;;;;;;;;;;5017717;28;20022;-69
2022/01/22 03:17:30;;;;;;;2.50;1.55;;;;;;;;;;5013860;28;20018;-69
2022/01/22 03:23:04;;;;;;;3.38;1.27;;;;;;;;;;5015606;28;20116;-69
2022/01/22 03:27:58;;;;;;;3.78;1.80;;;;;;;;;;5025282;28;20091;-69
2022/01/22 03:30:24;;;;;;;3.70;1.85;;;;;;;;;;5020067;28;20017;-71
2022/01/22 03:32:52;;;;;;;3.97;1.63;;;;;;;;;;5028480;28;20029;-69
2022/01/22 03:37:44;;;;;;;4.78;1.60;;;;;;;;;;5023706;28;20029;-70
2022/01/22 03:40:10;;;;;;;3.55;1.63;;;;;;;;;;5021453;28;20069;-68
2022/01/22 03:42:35;;;;;;;5.03;1.80;;;;;;;;;;5018017;28;20121;-70
2022/01/22 03:45:04;;;;;;;6.35;1.83;;;;;;;;;;5011747;28;20124;-69
2022/01/22 03:47:29;;;;;;;3.55;1.70;;;;;;;;;;5015563;28;20057;-69
2022/01/22 03:49:55;;;;;;;3.83;1.88;;;;;;;;;;5016743;28;20061;-69
2022/01/22 03:52:20;;;;;;;5.53;2.03;;;;;;;;;;5022275;28;20033;-70
2022/01/22 03:54:45;;;;;;;4.73;1.77;;;;;;;;;;5019908;28;20059;-70
2022/01/22 03:57:10;;;;;;;4.20;2.10;;;;;;;;;;5021347;28;20468;-70
2022/01/22 03:59:36;;;;;;;6.23;2.17;;;;;;;;;;5026321;28;20033;-70
2022/01/22 04:05:01;;;;;;;4.63;2.40;;;;;;;;;;4999466;28;20072;-71
2022/01/22 04:10:05;;;;;;;5.83;2.67;;;;;;;;;;5003599;28;20032;-70
2022/01/22 04:15:18;;;;;;;5.43;2.50;;;;;;;;;;5001007;28;20068;-70
2022/01/22 04:25:49;;;;;;;7.07;2.97;;;;;;;;;;5001800;28;20072;-70
2022/01/22 04:28:14;;;;;;;4.73;2.83;;;;;;;;;;5005430;28;20152;-71
2022/01/22 04:30:39;;;;;;;5.13;2.50;;;;;;;;;;5001453;28;20485;-71
2022/01/22 04:33:04;;;;;;;5.73;3.20;;;;;;;;;;4997143;28;20125;-71
2022/01/22 04:35:30;;;;;;;7.50;2.97;;;;;;;;;;4998901;28;20440;-71
2022/01/22 04:37:55;;;;;;;8.47;2.97;;;;;;;;;;5002377;28;20094;-70
2022/01/22 04:40:20;;;;;;;6.80;3.30;;;;;;;;;;5001443;28;20460;-69
2022/01/22 04:42:46;;;;;;;7.40;3.27;;;;;;;;;;5017935;28;20042;-71
2022/01/22 04:45:30;;;;;;;8.13;3.10;;;;;;;;;;5021698;28;20361;-68
2022/01/22 04:48:26;;;;;;;7.03;3.00;;;;;;;;;;5022389;28;20432;-70
2022/01/22 04:56:19;;;;;;;6.37;3.10;;;;;;;;;;5019181;28;20029;-70
2022/01/22 04:58:44;;;;;;;5.80;3.30;;;;;;;;;;5026561;28;20369;-69
2022/01/22 05:01:09;;;;;;;7.20;3.00;;;;;;;;;;5020241;28;20104;-69
2022/01/22 05:03:34;;;;;;;6.87;3.30;;;;;;;;;;5019313;28;20430;-68
2022/01/22 05:06:00;;;;;;;8.43;3.17;;;;;;;;;;5024606;28;20021;-70
2022/01/22 05:08:25;;;;;;;7.80;3.50;;;;;;;;;;5023980;28;20051;-69
2022/01/22 05:10:51;;;;;;;8.07;3.50;;;;;;;;;;5025573;28;20112;-70
2022/01/22 05:13:16;;;;;;;8.18;4.05;;;;;;;;;;5018149;28;20107;-69
2022/01/22 05:15:41;;;;;;;5.97;3.50;;;;;;;;;;5012886;28;20021;-69
2022/01/22 05:18:08;;;;;;;6.87;3.67;;;;;;;;;;5026553;28;20063;-71
2022/01/22 05:20:42;;;;;;;10.90;4.03;;;;;;;;;;5022611;28;20018;-71
2022/01/22 05:23:18;;;;;;;6.27;3.70;;;;;;;;;;5024661;28;20025;-69
2022/01/22 05:25:49;;;;;;;6.93;3.60;;;;;;;;;;5023693;28;20033;-71
2022/01/22 05:38:26;;;;;;;9.23;4.28;;;;;;;;;;5016660;28;20033;-70
2022/01/22 05:40:52;;;;;;;7.90;4.73;;;;;;;;;;5027921;28;20021;-70
2022/01/22 05:43:17;;;;;;;8.75;4.68;;;;;;;;;;5023109;28;20034;-70
2022/01/22 05:45:42;;;;;;;7.03;4.77;;;;;;;;;;5020355;28;20108;-69
2022/01/22 05:48:08;;;;;;;7.13;4.43;;;;;;;;;;5027622;28;20037;-71
2022/01/22 05:50:45;;;;;;;12.30;4.97;;;;;;;;;;5022369;28;20057;-69
2022/01/22 05:53:26;;;;;;;9.30;5.00;;;;;;;;;;5023676;28;20041;-70
2022/01/22 06:01:33;;;;;;;13.37;5.70;;;;;;;;;;5000806;28;20052;-70
2022/01/22 06:03:58;;;;;;;11.40;6.07;;;;;;;;;;4995996;28;20027;-70
2022/01/22 06:06:23;;;;;;;12.03;6.30;;;;;;;;;;5000087;28;20072;-69
2022/01/22 06:08:53;;;;;;;15.37;7.87;;;;;;;;;;5002655;28;20471;-70
2022/01/22 06:11:24;;;;;;;24.33;6.80;;;;;;;;;;5007072;28;20025;-69
2022/01/22 06:13:49;;;;;;;14.17;7.43;;;;;;;;;;5000165;28;20670;-71
2022/01/22 06:16:15;;;;;;;12.70;6.47;;;;;;;;;;5004615;28;20113;-70
2022/01/22 06:18:41;;;;;;;14.47;6.67;;;;;;;;;;5006780;28;20515;-70
2022/01/22 06:21:08;;;;;;;13.27;6.60;;;;;;;;;;4995808;28;20046;-72
2022/01/22 06:23:34;;;;;;;13.67;6.97;;;;;;;;;;5005738;28;20053;-69
2022/01/22 06:26:00;;;;;;;13.48;6.65;;;;;;;;;;5007791;28;20037;-70
2022/01/22 06:28:26;;;;;;;10.57;6.72;;;;;;;;;;5001989;28;20049;-69
2022/01/22 06:30:51;;;;;;;14.17;6.60;;;;;;;;;;5002418;28;20496;-70
2022/01/22 06:33:16;;;;;;;13.85;7.00;;;;;;;;;;4997573;28;20406;-72
2022/01/22 06:35:41;;;;;;;13.37;7.73;;;;;;;;;;5024592;28;20078;-70
2022/01/22 06:38:08;;;;;;;14.00;8.83;;;;;;;;;;5026643;28;20055;-69
2022/01/22 06:43:01;;;;;;;12.45;7.47;;;;;;;;;;5025790;28;20029;-70
2022/01/22 06:45:27;;;;;;;12.30;7.27;;;;;;;;;;5022806;28;20036;-69
2022/01/22 06:47:52;;;;;;;16.17;8.50;;;;;;;;;;5027114;28;20023;-71
2022/01/22 06:50:19;;;;;;;14.73;7.50;;;;;;;;;;5025108;28;20017;-70
2022/01/22 06:52:44;;;;;;;12.43;7.28;;;;;;;;;;5031880;28;20413;-68
2022/01/22 06:55:11;;;;;;;13.63;7.63;;;;;;;;;;5035263;28;20017;-69
2022/01/22 06:57:36;;;;;;;12.17;7.07;;;;;;;;;;5022907;28;20530;-68
2022/01/22 07:00:03;;;;;;;13.68;6.82;;;;;;;;;;5024228;28;20021;-70
2022/01/22 07:02:29;;;;;;;13.80;7.67;;;;;;;;;;5023519;28;20033;-70
2022/01/22 07:04:54;;;;;;;11.97;6.93;;;;;;;;;;5027977;28;20380;-70
2022/01/22 07:07:19;;;;;;;13.38;7.36;;;;;;;;;;5029221;28;20408;-67
2022/01/22 07:09:45;;;;;;;14.35;7.05;;;;;;;;;;5023859;28;20108;-68
2022/01/22 07:12:12;;;;;;;11.98;6.93;;;;;;;;;;5023856;28;20033;-69
2022/01/22 07:14:37;;;;;;;14.60;7.43;;;;;;;;;;5030987;28;20111;-70
2022/01/22 07:17:02;;;;;;;13.13;7.53;;;;;;;;;;5030331;28;20029;-68
2022/01/22 07:19:27;;;;;;;15.07;8.02;;;;;;;;;;5025216;28;20104;-69
2022/01/22 07:22:02;;;;;;;15.63;8.37;;;;;;;;;;5029427;28;20112;-69
2022/01/22 07:24:32;;;;;;;13.05;8.18;;;;;;;;;;5025169;28;20014;-71
2022/01/22 07:26:58;;;;;;;14.02;7.97;;;;;;;;;;5029069;28;20033;-71
2022/01/22 07:29:23;;;;;;;15.70;9.02;;;;;;;;;;5029542;28;20009;-70
2022/01/22 07:31:48;;;;;;;16.77;9.87;;;;;;;;;;5024102;28;20049;-69
2022/01/22 07:34:13;;;;;;;19.60;9.32;;;;;;;;;;5030091;28;20041;-69
2022/01/22 07:36:39;;;;;;;15.33;9.80;;;;;;;;;;5027920;28;20092;-69
2022/01/22 07:39:06;;;;;;;18.33;10.57;;;;;;;;;;5021724;28;20053;-70
2022/01/22 07:41:31;;;;;;;19.03;10.70;;;;;;;;;;5030952;28;20029;-68
2022/01/22 07:43:56;;;;;;;22.07;11.47;;;;;;;;;;5024185;28;20870;-69
2022/01/22 07:46:21;;;;;;;19.64;11.64;;;;;;;;;;5029475;28;20022;-70
2022/01/22 07:48:47;;;;;;;23.05;11.88;;;;;;;;;;5028945;28;20034;-69
2022/01/22 07:51:13;;;;;;;26.90;12.43;;;;;;;;;;5029521;28;20532;-69
2022/01/22 07:53:38;;;;;;;21.20;12.80;;;;;;;;;;5028266;28;20053;-70
2022/01/22 07:56:04;;;;;;;24.37;11.87;;;;;;;;;;5030746;28;20022;-71
2022/01/22 07:58:29;;;;;;;26.60;12.63;;;;;;;;;;5024438;28;20036;-69
2022/01/22 08:00:54;;;;;;;22.33;12.93;;;;;;;;;;5025984;28;20434;-69
2022/01/22 08:03:20;;;;;;;20.53;12.13;;;;;;;;;;5026996;28;20029;-70
2022/01/22 08:05:45;;;;;;;21.63;12.57;;;;;;;;;;5023416;28;20068;-71
2022/01/22 08:08:10;;;;;;;27.10;13.03;;;;;;;;;;5026909;28;20053;-70
2022/01/22 08:10:35;;;;;;;23.93;12.60;;;;;;;;;;5030544;28;20017;-71
2022/01/22 08:13:00;;;;;;;22.75;13.05;;;;;;;;;;5027635;28;20030;-70
2022/01/22 08:15:25;;;;;;;23.90;12.57;;;;;;;;;;5029011;28;20032;-70
2022/01/22 08:17:51;;;;;;;24.30;12.83;;;;;;;;;;5027169;28;20118;-69
2022/01/22 08:20:16;;;;;;;21.40;12.40;;;;;;;;;;5023417;28;20037;-69
2022/01/22 08:22:45;;;;;;;23.33;13.10;;;;;;;;;;5034239;28;20101;-68
2022/01/22 08:25:10;;;;;;;24.80;12.47;;;;;;;;;;5034060;28;20303;-68
2022/01/22 08:27:42;;;;;;;21.15;12.77;;;;;;;;;;5021861;28;20059;-69
2022/01/22 08:30:09;;;;;;;23.50;13.47;;;;;;;;;;5023114;28;20374;-68
2022/01/22 08:37:50;;;;;;;22.63;11.57;;;;;;;;;;5026875;28;20090;-69
2022/01/22 08:40:15;;;;;;;23.00;11.93;;;;;;;;;;5024395;28;20029;-70
2022/01/22 08:42:40;;;;;;;20.20;11.88;;;;;;;;;;5029573;28;20059;-68
2022/01/22 08:45:06;;;;;;;20.03;11.77;;;;;;;;;;5027483;28;20507;-68
2022/01/22 08:47:32;;;;;;;20.83;12.03;;;;;;;;;;5027282;28;20022;-69
2022/01/22 08:49:57;;;;;;;22.00;12.80;;;;;;;;;;5031788;28;20037;-69
2022/01/22 08:52:27;;;;;;;22.52;12.15;;;;;;;;;;5031118;28;20087;-70
2022/01/22 08:54:52;;;;;;;22.83;11.97;;;;;;;;;;5024750;28;20041;-68
2022/01/22 08:57:18;;;;;;;20.63;11.57;;;;;;;;;;5025154;28;20025;-69
2022/01/22 08:59:43;;;;;;;25.55;11.68;;;;;;;;;;5024321;28;20091;-69
2022/01/22 09:02:08;;;;;;;25.17;13.00;;;;;;;;;;5022486;28;20017;-69
2022/01/22 09:04:34;;;;;;;23.50;11.93;;;;;;;;;;5023220;28;20607;-71
2022/01/22 09:06:59;;;;;;;19.75;12.05;;;;;;;;;;5028610;28;20049;-69
2022/01/22 09:09:25;;;;;;;21.90;11.00;;;;;;;;;;5027179;28;20029;-68
2022/01/22 09:11:50;;;;;;;26.10;12.73;;;;;;;;;;5025103;28;20033;-69
2022/01/22 09:14:16;;;;;;;24.00;13.10;;;;;;;;;;5025800;28;20048;-70
2022/01/22 09:16:42;;;;;;;21.98;12.48;;;;;;;;;;5024763;28;20041;-69
2022/01/22 09:19:10;;;;;;;23.30;13.03;;;;;;;;;;5018119;28;20029;-71
2022/01/22 09:21:37;;;;;;;24.17;12.70;;;;;;;;;;5030065;28;20083;-68
2022/01/22 09:24:02;;;;;;;22.13;13.27;;;;;;;;;;5026151;28;20072;-71
2022/01/22 09:26:28;;;;;;;21.53;12.90;;;;;;;;;;5022576;28;20053;-70
2022/01/22 09:28:56;;;;;;;26.13;12.90;;;;;;;;;;5022876;28;20033;-69
2022/01/22 09:31:21;;;;;;;25.60;13.80;;;;;;;;;;5022473;28;20112;-69
2022/01/22 09:33:46;;;;;;;18.80;12.23;;;;;;;;;;5028019;28;20452;-69
2022/01/22 09:36:11;;;;;;;20.83;12.50;;;;;;;;;;5026109;28;20028;-68
2022/01/22 09:38:37;;;;;;;22.30;13.10;;;;;;;;;;5017630;28;20052;-69
2022/01/22 09:41:03;;;;;;;25.52;14.23;;;;;;;;;;5021138;28;20417;-70
2022/01/22 09:43:28;;;;;;;25.15;12.68;;;;;;;;;;5029129;28;20036;-69
2022/01/22 09:45:53;;;;;;;23.40;12.43;;;;;;;;;;5028486;28;20473;-67
2022/01/22 09:48:18;;;;;;;23.08;13.75;;;;;;;;;;5026916;28;20040;-63
2022/01/22 09:50:44;;;;;;;20.35;11.60;;;;;;;;;;5028038;28;20025;-63
2022/01/22 09:53:09;;;;;;;19.85;12.15;;;;;;;;;;5025688;28;20032;-62
2022/01/22 09:55:34;;;;;;;24.00;12.30;;;;;;;;;;5024246;28;20036;-62
2022/01/22 09:57:59;;;;;;;20.17;12.10;;;;;;;;;;5020192;28;20366;-63
2022/01/22 10:00:25;;;;;;;17.67;10.65;;;;;;;;;;5031596;28;20040;-61
2022/01/22 10:02:52;;;;;;;22.85;11.85;;;;;;;;;;5028161;28;20057;-63
2022/01/22 10:05:27;;;;;;;19.65;11.57;;;;;;;;;;5031199;28;20401;-62
2022/01/22 10:07:53;;;;;;;18.33;10.52;;;;;;;;;;5019586;28;20129;-62
2022/01/22 10:10:19;;;;;;;19.67;11.85;;;;;;;;;;5030502;28;20377;-62
2022/01/22 10:12:45;;;;;;;22.95;11.90;;;;;;;;;;5030183;28;20037;-62
2022/01/22 10:15:15;;;;;;;22.40;11.63;;;;;;;;;;5024909;28;20224;-63
2022/01/22 10:17:42;;;;;;;21.02;10.95;;;;;;;;;;5029743;28;20573;-64
2022/01/22 10:20:33;;;;;;;16.80;10.07;;;;;;;;;;5024640;28;20079;-63
2022/01/22 10:23:01;;;;;;;18.63;10.73;;;;;;;;;;5021617;28;20033;-62
2022/01/22 10:25:34;;;;;;;18.08;10.00;;;;;;;;;;5028546;28;20037;-63
2022/01/22 10:28:00;;;;;;;18.67;10.93;;;;;;;;;;5030810;28;20570;-62
2022/01/22 10:30:34;;;;;;;19.77;10.80;;;;;;;;;;5020145;28;20389;-64
2022/01/22 10:33:11;;;;;;;22.02;10.30;;;;;;;;;;5027272;28;20400;-61
2022/01/22 10:35:36;;;;;;;17.20;10.23;;;;;;;;;;5026243;28;20041;-63
2022/01/22 10:38:03;;;;;;;19.02;11.27;;;;;;;;;;5032570;28;20025;-63
2022/01/22 10:40:29;;;;;;;17.77;10.30;;;;;;;;;;5027193;28;20025;-61
2022/01/22 10:43:15;;;;;;;19.63;10.43;;;;;;;;;;5032029;28;20056;-62
2022/01/22 10:45:41;;;;;;;17.17;10.77;;;;;;;;;;5024380;28;20606;-61
2022/01/22 10:48:15;;;;;;;20.55;10.50;;;;;;;;;;5025271;28;20026;-62
2022/01/22 10:50:41;;;;;;;18.27;10.32;;;;;;;;;;5031072;28;20057;-60
2022/01/22 10:53:06;;;;;;;16.83;9.30;;;;;;;;;;5028286;28;20084;-62
2022/01/22 10:55:31;;;;;;;17.40;9.65;;;;;;;;;;5029034;28;20017;-62
2022/01/22 10:58:07;;;;;;;20.10;11.10;;;;;;;;;;5030532;28;20040;-62
2022/01/22 11:00:32;;;;;;;17.13;9.55;;;;;;;;;;5022830;28;20022;-61
2022/01/22 11:02:57;;;;;;;18.85;10.80;;;;;;;;;;5028786;28;20121;-61
2022/01/22 11:05:36;;;;;;;18.88;10.88;;;;;;;;;;5024881;28;20160;-62
2022/01/22 11:08:08;;;;;;;20.55;10.43;;;;;;;;;;5030288;28;20064;-63
2022/01/22 11:10:33;;;;;;;17.03;9.83;;;;;;;;;;5022235;28;20152;-62
2022/01/22 11:12:58;;;;;;;16.80;9.70;;;;;;;;;;5021903;28;20132;-62
2022/01/22 11:15:23;;;;;;;17.70;10.05;;;;;;;;;;5021550;28;20025;-61
2022/01/22 11:17:49;;;;;;;18.15;9.70;;;;;;;;;;5027308;28;20068;-63
2022/01/22 11:20:14;;;;;;;16.30;10.20;;;;;;;;;;5030552;28;20014;-62
2022/01/22 11:22:39;;;;;;;16.92;9.40;;;;;;;;;;5035464;28;20380;-63
2022/01/22 11:25:07;;;;;;;18.80;9.57;;;;;;;;;;5025281;28;20048;-61
2022/01/22 11:27:36;;;;;;;20.23;10.48;;;;;;;;;;5022414;28;20032;-62
2022/01/22 11:30:05;;;;;;;20.05;10.50;;;;;;;;;;5030763;28;20071;-62
2022/01/22 11:32:35;;;;;;;18.60;9.57;;;;;;;;;;5024190;28;20131;-62
2022/01/22 11:35:05;;;;;;;20.10;9.98;;;;;;;;;;5021368;28;20067;-61
2022/01/22 11:37:36;;;;;;;18.27;8.82;;;;;;;;;;5021174;28;20040;-62
2022/01/22 11:40:15;;;;;;;17.77;9.38;;;;;;;;;;5024508;28;20080;-60
2022/01/22 11:42:55;;;;;;;20.73;10.45;;;;;;;;;;5029121;28;20025;-63
2022/01/22 11:45:33;;;;;;;17.80;9.45;;;;;;;;;;5026455;28;20052;-62
2022/01/22 11:48:10;;;;;;;16.20;9.02;;;;;;;;;;5018820;28;20093;-62
2022/01/22 11:50:35;;;;;;;17.83;10.10;;;;;;;;;;5024186;28;20888;-61
2022/01/22 11:53:19;;;;;;;16.95;9.45;;;;;;;;;;5027362;28;20030;-63
2022/01/22 11:56:04;;;;;;;17.38;9.00;;;;;;;;;;5027535;28;20026;-61
2022/01/22 11:58:30;;;;;;;16.77;9.32;;;;;;;;;;5023384;28;20037;-63
2022/01/22 12:00:55;;;;;;;17.08;9.43;;;;;;;;;;5029760;28;20038;-62
2022/01/22 12:03:20;;;;;;;15.57;8.68;;;;;;;;;;5029444;28;20021;-62
2022/01/22 12:05:54;;;;;;;14.95;9.35;;;;;;;;;;5029434;28;20013;-61
2022/01/22 12:08:23;;;;;;;21.58;10.18;;;;;;;;;;5027510;28;20507;-62
2022/01/22 12:16:37;;;;;;;17.23;9.80;;;;;;;;;;5025995;28;20091;-64
2022/01/22 12:19:03;;;;;;;16.00;9.27;;;;;;;;;;5028509;28;20025;-61
2022/01/22 12:21:38;;;;;;;16.60;9.68;;;;;;;;;;5034172;28;20032;-61
2022/01/22 12:24:05;;;;;;;16.75;9.90;;;;;;;;;;5022938;28;20557;-62
2022/01/22 12:26:41;;;;;;;17.87;9.97;;;;;;;;;;5020682;28;20140;-66
2022/01/22 12:29:25;;;;;;;18.35;9.38;;;;;;;;;;5018760;28;20040;-62
2022/01/22 12:32:08;;;;;;;16.42;9.45;;;;;;;;;;5027038;28;20021;-62
2022/01/22 12:35:14;;;;;;;15.38;9.50;;;;;;;;;;5025135;28;20040;-61
2022/01/22 12:37:42;;;;;;;16.92;10.27;;;;;;;;;;4978213;28;20567;-62
2022/01/22 12:40:08;;;;;;;18.95;10.48;;;;;;;;;;4979226;28;20026;-61
2022/01/22 12:42:51;;;;;;;17.52;9.70;;;;;;;;;;4984691;28;20045;-61
2022/01/22 12:45:17;;;;;;;18.25;10.85;;;;;;;;;;4986998;28;20092;-62
2022/01/22 12:47:47;;;;;;;18.45;10.20;;;;;;;;;;4985424;28;20061;-61
2022/01/22 12:50:12;;;;;;;17.52;10.23;;;;;;;;;;4982052;28;20046;-62
2022/01/22 12:52:40;;;;;;;19.23;10.35;;;;;;;;;;4981484;28;20030;-61
2022/01/22 12:55:16;;;;;;;20.50;9.70;;;;;;;;;;4986531;28;20054;-61
2022/01/22 12:57:42;;;;;;;22.30;11.38;;;;;;;;;;4977271;28;20101;-60
2022/01/22 13:00:17;;;;;;;17.95;10.50;;;;;;;;;;4985326;28;20398;-62
2022/01/22 13:02:47;;;;;;;20.30;10.63;;;;;;;;;;4977354;28;20105;-61
2022/01/22 13:05:14;;;;;;;18.63;10.77;;;;;;;;;;4983562;28;20064;-62
2022/01/22 13:07:46;;;;;;;18.40;10.32;;;;;;;;;;4993764;28;20049;-60
2022/01/22 13:10:11;;;;;;;19.45;10.75;;;;;;;;;;5020207;28;20088;-61
2022/01/22 13:12:41;;;;;;;21.10;10.77;;;;;;;;;;5020463;28;20037;-60
2022/01/22 13:15:10;;;;;;;21.50;10.98;;;;;;;;;;5017822;28;20026;-62
2022/01/22 13:17:35;;;;;;;22.27;11.88;;;;;;;;;;5022130;28;20388;-61
2022/01/22 13:20:00;;;;;;;19.80;11.00;;;;;;;;;;5028903;28;20021;-61
2022/01/22 13:22:33;;;;;;;19.05;11.13;;;;;;;;;;5034070;28;20486;-61
2022/01/22 13:25:03;;;;;;;20.92;11.52;;;;;;;;;;5022687;28;20022;-62
2022/01/22 13:27:31;;;;;;;;;;;;;;;;;;5024468;28;20485;-63
2022/01/22 13:29:56;;;;;;;18.90;10.43;;;;;;;;;;5019960;28;19909;-61
2022/01/22 13:35:17;;;;;;;20.42;10.98;;;;;;;;;;5028531;28;20036;-62
2022/01/22 13:49:13;;;;;;;23.92;11.30;;;;;;;;;;5026374;28;20084;-62
2022/01/22 13:51:39;;;;;;;21.98;11.60;;;;;;;;;;5031693;28;20029;-61
2022/01/22 13:54:05;;;;;;;19.17;10.63;;;;;;;;;;5020791;28;20520;-63
2022/01/22 13:56:45;;;;;;;20.70;10.75;;;;;;;;;;5028016;28;20038;-61
2022/01/22 13:59:19;;;;;;;20.45;9.80;;;;;;;;;;5024785;28;20026;-61
2022/01/22 14:04:16;;;;;;;20.65;11.30;;;;;;;;;;5015183;28;20445;-62
2022/01/22 14:06:46;;;;;;;20.38;11.13;;;;;;;;;;5022404;28;20093;-62
2022/01/22 14:09:13;;;;;;;24.35;11.70;;;;;;;;;;5027129;28;20071;-61
2022/01/22 14:11:58;;;;;;;19.83;11.30;;;;;;;;;;5027780;28;20100;-61
2022/01/22 14:14:23;;;;;;;23.85;11.75;;;;;;;;;;5022157;28;20057;-61
2022/01/22 14:17:05;;;;;;;19.50;11.00;;;;;;;;;;5022399;28;20060;-62
2022/01/22 14:19:30;;;;;;;20.17;10.88;;;;;;;;;;5028317;28;20029;-62
2022/01/22 14:21:56;;;;;;;22.55;12.48;;;;;;;;;;5029302;28;20032;-62
2022/01/22 14:24:28;;;;;;;22.45;11.85;;;;;;;;;;5023498;28;20068;-62
2022/01/22 14:26:53;;;;;;;24.10;12.18;;;;;;;;;;5028085;28;20535;-61
2022/01/22 14:29:19;;;;;;;23.70;12.10;;;;;;;;;;5028279;28;20037;-63
2022/01/22 14:31:53;;;;;;;23.15;12.27;;;;;;;;;;5031979;28;20018;-62
2022/01/22 14:34:39;;;;;;;24.80;12.73;;;;;;;;;;5032021;28;20033;-62
2022/01/22 14:37:05;;;;;;;23.92;11.77;;;;;;;;;;5031858;28;20036;-63
2022/01/22 14:44:00;;;;;;;22.05;11.63;;;;;;;;;;5031659;28;20076;-61
2022/01/22 14:45:12;;;;;;;24.38;12.18;;;;;;;;;;5031876;28;20067;-61
2022/01/22 14:47:37;;;;;;;23.83;13.40;;;;;;;;;;5032068;28;20053;-61
2022/01/22 14:50:02;;;;;;;18.67;10.90;;;;;;;;;;5031640;28;20463;-62
2022/01/22 14:52:27;;;;;;;22.15;11.60;;;;;;;;;;5034696;28;20021;-61
2022/01/22 14:54:55;;;;;;;22.25;10.82;;;;;;;;;;5031913;28;20464;-62
2022/01/22 14:57:22;;;;;;;18.50;10.63;;;;;;;;;;5031559;28;20021;-61
2022/01/22 14:59:47;;;;;;;19.95;11.32;;;;;;;;;;5029694;28;20039;-61
2022/01/22 15:02:13;;;;;;;19.48;10.75;;;;;;;;;;5030334;28;20040;-61
2022/01/22 15:04:39;;;;;;;22.15;11.25;;;;;;;;;;5030894;28;20020;-61
2022/01/22 15:07:06;;;;;;;19.88;10.57;;;;;;;;;;5039861;28;20564;-62
2022/01/22 15:09:31;;;;;;;18.85;10.98;;;;;;;;;;5033127;28;20028;-63
2022/01/22 15:11:57;;;;;;;18.60;10.88;;;;;;;;;;5033803;28;20009;-61
2022/01/22 15:14:26;;;;;;;19.05;10.85;;;;;;;;;;5030929;28;20389;-63
2022/01/22 15:17:13;;;;;;;19.25;10.95;;;;;;;;;;5037069;28;20032;-62
2022/01/22 15:19:42;;;;;;;19.98;10.60;;;;;;;;;;5036825;28;20092;-61
2022/01/22 15:22:08;;;;;;;20.58;11.48;;;;;;;;;;5032538;28;20068;-62
2022/01/22 15:24:33;;;;;;;19.52;10.85;;;;;;;;;;5029722;28;20102;-62
2022/01/22 15:26:59;;;;;;;21.48;10.75;;;;;;;;;;5030935;28;20527;-62
2022/01/22 15:29:27;;;;;;;22.25;11.63;;;;;;;;;;5028344;28;20036;-62
2022/01/22 15:32:05;;;;;;;18.08;10.00;;;;;;;;;;5030847;28;20029;-61
2022/01/22 15:37:06;;;;;;;19.15;10.65;;;;;;;;;;5036014;28;20043;-62
2022/01/22 15:39:31;;;;;;;18.80;9.95;;;;;;;;;;5030468;28;20377;-62
2022/01/22 15:41:57;;;;;;;21.37;11.20;;;;;;;;;;5026315;28;20018;-61
2022/01/22 15:44:22;;;;;;;22.25;11.77;;;;;;;;;;5028546;28;20040;-61
2022/01/22 15:46:48;;;;;;;21.08;11.07;;;;;;;;;;5030905;28;20029;-62
2022/01/22 15:49:21;;;;;;;23.42;11.57;;;;;;;;;;5027287;28;20025;-61
2022/01/22 15:51:48;;;;;;;22.13;12.15;;;;;;;;;;5030507;28;20092;-62
2022/01/22 15:54:13;;;;;;;24.15;13.27;;;;;;;;;;5030479;28;20045;-62
2022/01/22 15:56:39;;;;;;;24.85;13.73;;;;;;;;;;5030705;28;20044;-61
2022/01/22 15:59:05;;;;;;;26.80;12.95;;;;;;;;;;5030600;28;20471;-61
2022/01/22 16:01:30;;;;;;;26.27;13.32;;;;;;;;;;5025040;28;20079;-62
2022/01/22 16:03:57;;;;;;;22.38;12.65;;;;;;;;;;5030862;28;20112;-62
2022/01/22 16:06:33;;;;;;;25.58;12.65;;;;;;;;;;5026572;28;20493;-60
2022/01/22 16:08:58;;;;;;;26.55;13.20;;;;;;;;;;5030785;28;20036;-63
2022/01/22 16:11:23;;;;;;;26.35;14.45;;;;;;;;;;5029700;28;20646;-62
2022/01/22 16:13:48;;;;;;;26.73;14.15;;;;;;;;;;5028111;28;20037;-62
2022/01/22 16:16:14;;;;;;;25.90;13.48;;;;;;;;;;5028207;28;20028;-61
2022/01/22 16:18:39;;;;;;;29.48;13.70;;;;;;;;;;5030193;28;20474;-62
2022/01/22 16:21:05;;;;;;;28.55;14.10;;;;;;;;;;5028634;28;20397;-63
2022/01/22 16:23:30;;;;;;;23.00;12.63;;;;;;;;;;5028896;28;20037;-62
2022/01/22 16:25:56;;;;;;;25.85;14.10;;;;;;;;;;5025495;28;20116;-61
2022/01/22 16:28:21;;;;;;;29.52;13.50;;;;;;;;;;5026007;28;20014;-63
2022/01/22 16:30:46;;;;;;;26.40;13.60;;;;;;;;;;5025725;28;20025;-62
2022/01/22 16:33:12;;;;;;;25.85;13.77;;;;;;;;;;5029638;28;20032;-64
2022/01/22 16:35:37;;;;;;;28.52;14.57;;;;;;;;;;5030010;28;20053;-62
2022/01/22 16:38:02;;;;;;;26.38;13.43;;;;;;;;;;5031408;28;20475;-62